Panda — PBCS — position and weather

sailwx.info

Track history (hours):
 
Tides and Currents Weather Stations Pressure Air Temp Water Temp Dewpoint Dewpoint Depression Visibility Wind Speed Wind Dir Waves Ship Positions

Panda

Last reported at 2014-Oct-25 17:27 UTC. Time now 2014-Oct-25 18:20 UTC.
Position N 44°02' E 010°02'.

Length 89 m; draft 3.2 m.

Type: Cargo ship. MMSI: 245014000.

Date/timePositionNaut miles runAvg speedWind from/ knotsBaromVisibWave heightAir tempDewpointWater temp
2014-Oct-25 17:27N 44°02' E 010°02'0 0.0
2014-Oct-25 16:30N 44°02' E 010°02'0 0.0
2014-Oct-25 15:33N 44°02' E 010°02'0 0.0
2014-Oct-25 14:33N 44°02' E 010°02'0 0.0
2014-Oct-25 13:30N 44°02' E 010°02'0 0.0
2014-Oct-25 12:33N 44°02' E 010°02'0 0.0
2014-Oct-25 11:33N 44°02' E 010°02'4 4.1
2014-Oct-25 10:33N 43°59' E 009°59'1010.1
2014-Oct-25 09:33N 43°55' E 009°46'10 9.9
2014-Oct-25 08:33N 43°52' E 009°33'10 9.7
2014-Oct-25 07:33N 43°49' E 009°20'10 9.9
2014-Oct-25 06:33N 43°45' E 009°07'1010.4
2014-Oct-25 05:33N 43°41' E 008°54'1010.2
2014-Oct-25 04:32N 43°37' E 008°41'76 9.4
2014-Oct-24 20:29N 43°09' E 007°04'9 9.9
2014-Oct-24 19:33N 43°06' E 006°52'36 9.0
2014-Oct-24 15:32N 42°58' E 006°04'41 9.1
2014-Oct-24 11:05N 43°12' E 005°11'810.5
2014-Oct-24 10:18N 43°18' E 005°03'810.2
2014-Oct-24 09:33N 43°23' E 004°56'5 3.7
2014-Oct-24 08:06N 43°23' E 004°49'  
2014-Oct-18 11:32N 43°26' E 004°44'4 4.5
2014-Oct-18 10:33N 43°23' E 004°48'5 5.4
2014-Oct-18 09:33N 43°23' E 004°56'7 7.1
2014-Oct-18 08:33N 43°16' E 004°56'9 9.3
2014-Oct-18 07:32N 43°09' E 004°48'9 9.2
2014-Oct-18 06:33N 43°01' E 004°41'81 9.1
2014-Oct-17 21:33N 41°55' E 003°36'10 8.5
2014-Oct-17 20:23N 41°47' E 003°28'19 8.8
2014-Oct-17 18:15N 41°32' E 003°13'8 9.8
2014-Oct-17 17:28N 41°26' E 003°07'8 8.9
2014-Oct-17 16:33N 41°20' E 002°60'9 9.4
2014-Oct-17 15:33N 41°12' E 002°53'9 9.1
2014-Oct-17 14:33N 41°05' E 002°45'9 9.0
2014-Oct-17 13:33N 40°58' E 002°38'9 9.1
2014-Oct-17 12:33N 40°51' E 002°31'9 9.5
2014-Oct-17 11:33N 40°43' E 002°24'10 9.8
2014-Oct-17 10:33N 40°35' E 002°16'10 9.5
2014-Oct-17 09:33N 40°27' E 002°09'10 9.7
2014-Oct-17 08:33N 40°19' E 002°01'10 9.6
2014-Oct-17 07:33N 40°12' E 001°54'10 9.5
2014-Oct-17 06:33N 40°04' E 001°46'9 9.4
2014-Oct-17 05:33N 39°57' E 001°39'9 9.4
2014-Oct-17 04:33N 39°49' E 001°31'48 9.4
2014-Oct-16 23:27N 39°10' E 000°55'46 9.4
2014-Oct-16 18:31N 38°33' E 000°20'65 9.2
2014-Oct-16 11:31N 37°39' W 000°25'9 9.3
2014-Oct-16 10:32N 37°32' W 000°32'12 9.2
2014-Oct-16 09:13N 37°24' W 000°44'10 8.9
2014-Oct-16 08:09N 37°18' W 000°53'  
Track history (hours):
 
Tides and Currents Weather Stations Pressure Air Temp Water Temp Dewpoint Dewpoint Depression Visibility Wind Speed Wind Dir Waves Ship Positions

Panda

Last reported at 2014-Oct-25 17:27 UTC. Time now 2014-Oct-25 18:20 UTC.
Position N 44°02' E 010°02'.

Length 89 m; draft 3.2 m.

Type: Cargo ship. MMSI: 245014000.

Date/timePositionNaut miles runAvg speedWind from/ knotsBaromVisibWave heightAir tempDewpointWater temp
2014-Oct-25 17:27N 44°02' E 010°02'0 0.0
2014-Oct-25 16:30N 44°02' E 010°02'0 0.0
2014-Oct-25 15:33N 44°02' E 010°02'0 0.0
2014-Oct-25 14:33N 44°02' E 010°02'0 0.0
2014-Oct-25 13:30N 44°02' E 010°02'0 0.0
2014-Oct-25 12:33N 44°02' E 010°02'0 0.0
2014-Oct-25 11:33N 44°02' E 010°02'4 4.1
2014-Oct-25 10:33N 43°59' E 009°59'1010.1
2014-Oct-25 09:33N 43°55' E 009°46'10 9.9
2014-Oct-25 08:33N 43°52' E 009°33'10 9.7
2014-Oct-25 07:33N 43°49' E 009°20'10 9.9
2014-Oct-25 06:33N 43°45' E 009°07'1010.4
2014-Oct-25 05:33N 43°41' E 008°54'1010.2
2014-Oct-25 04:32N 43°37' E 008°41'76 9.4
2014-Oct-24 20:29N 43°09' E 007°04'9 9.9
2014-Oct-24 19:33N 43°06' E 006°52'36 9.0
2014-Oct-24 15:32N 42°58' E 006°04'41 9.1
2014-Oct-24 11:05N 43°12' E 005°11'810.5
2014-Oct-24 10:18N 43°18' E 005°03'810.2
2014-Oct-24 09:33N 43°23' E 004°56'5 3.7
2014-Oct-24 08:06N 43°23' E 004°49'  
2014-Oct-18 11:32N 43°26' E 004°44'4 4.5
2014-Oct-18 10:33N 43°23' E 004°48'5 5.4
2014-Oct-18 09:33N 43°23' E 004°56'7 7.1
2014-Oct-18 08:33N 43°16' E 004°56'9 9.3
2014-Oct-18 07:32N 43°09' E 004°48'9 9.2
2014-Oct-18 06:33N 43°01' E 004°41'81 9.1
2014-Oct-17 21:33N 41°55' E 003°36'10 8.5
2014-Oct-17 20:23N 41°47' E 003°28'19 8.8
2014-Oct-17 18:15N 41°32' E 003°13'8 9.8
2014-Oct-17 17:28N 41°26' E 003°07'8 8.9
2014-Oct-17 16:33N 41°20' E 002°60'9 9.4
2014-Oct-17 15:33N 41°12' E 002°53'9 9.1
2014-Oct-17 14:33N 41°05' E 002°45'9 9.0
2014-Oct-17 13:33N 40°58' E 002°38'9 9.1
2014-Oct-17 12:33N 40°51' E 002°31'9 9.5
2014-Oct-17 11:33N 40°43' E 002°24'10 9.8
2014-Oct-17 10:33N 40°35' E 002°16'10 9.5
2014-Oct-17 09:33N 40°27' E 002°09'10 9.7
2014-Oct-17 08:33N 40°19' E 002°01'10 9.6
2014-Oct-17 07:33N 40°12' E 001°54'10 9.5
2014-Oct-17 06:33N 40°04' E 001°46'9 9.4
2014-Oct-17 05:33N 39°57' E 001°39'9 9.4
2014-Oct-17 04:33N 39°49' E 001°31'48 9.4
2014-Oct-16 23:27N 39°10' E 000°55'46 9.4
2014-Oct-16 18:31N 38°33' E 000°20'65 9.2
2014-Oct-16 11:31N 37°39' W 000°25'9 9.3
2014-Oct-16 10:32N 37°32' W 000°32'12 9.2
2014-Oct-16 09:13N 37°24' W 000°44'10 8.9
2014-Oct-16 08:09N 37°18' W 000°53'  

Dump ship's entire track history